createdAt,value
2023-05-19T00:01:49.293Z,103050.78
2023-05-19T00:04:55.089Z,103058.44
2023-05-19T00:08:01.835Z,103057.53
2023-05-19T00:11:07.685Z,103066.84
2023-05-19T00:14:16.676Z,103071.97
2023-05-19T00:17:23.694Z,103061.69
2023-05-19T00:20:28.698Z,103075.84
2023-05-19T00:23:33.782Z,103066.34
2023-05-19T00:26:39.118Z,103069.84
2023-05-19T00:29:45.056Z,103064.66
2023-05-19T00:32:51.588Z,103072.59
2023-05-19T00:35:56.635Z,103069.91
2023-05-19T00:39:01.653Z,103075.75
2023-05-19T00:42:07.246Z,103072.38
2023-05-19T00:45:12.514Z,103076.69
2023-05-19T00:48:18.989Z,103076.84
2023-05-19T00:51:27.961Z,103077.78
2023-05-19T00:54:33.707Z,103076.03
2023-05-19T00:57:39.393Z,103082.84
2023-05-19T01:00:44.624Z,103090.59
2023-05-19T01:03:51.610Z,103088.91
2023-05-19T01:06:56.670Z,103079.63
2023-05-19T01:10:01.654Z,103094.88
2023-05-19T01:13:07.597Z,103094.69
2023-05-19T01:16:15.524Z,103096.47
2023-05-19T01:19:42.009Z,103098.94
2023-05-19T01:23:16.880Z,103095.47
2023-05-19T01:26:40.487Z,103096.25
2023-05-19T01:29:53.043Z,103102.16
2023-05-19T01:33:01.770Z,103109.03
2023-05-19T01:36:08.185Z,103106.38
2023-05-19T01:39:15.160Z,103107.94
2023-05-19T01:42:20.751Z,103106.28
2023-05-19T01:45:26.364Z,103105.34
2023-05-19T01:48:32.942Z,103114.66
2023-05-19T01:51:38.243Z,103111.16
2023-05-19T01:54:43.552Z,103115.38
2023-05-19T01:57:57.665Z,103111.06
2023-05-19T02:01:19.583Z,103110.25
2023-05-19T02:04:35.886Z,103117.72
2023-05-19T02:07:48.003Z,103112.50
2023-05-19T02:10:56.832Z,103113.28
2023-05-19T02:14:04.553Z,103107.25
2023-05-19T02:17:10.968Z,103106.38
2023-05-19T02:20:17.966Z,103115.78
2023-05-19T02:23:22.998Z,103108.06
2023-05-19T02:26:28.208Z,103117.44
2023-05-19T02:29:33.232Z,103119.94
2023-05-19T02:32:38.568Z,103113.06
2023-05-19T02:35:45.128Z,103124.81
2023-05-19T02:38:50.230Z,103110.59
2023-05-19T02:41:55.288Z,103114.88
2023-05-19T02:45:01.163Z,103103.94
2023-05-19T02:48:06.748Z,103109.88
2023-05-19T02:51:13.358Z,103116.53
2023-05-19T02:54:18.586Z,103114.06
2023-05-19T02:57:24.205Z,103119.16
2023-05-19T03:00:29.462Z,103120.94
2023-05-19T03:03:34.703Z,103120.81
2023-05-19T03:06:42.275Z,103119.00
2023-05-19T03:09:47.349Z,103114.91
2023-05-19T03:12:52.326Z,103116.59
2023-05-19T03:15:59.281Z,103117.41
2023-05-19T03:19:04.477Z,103119.28
2023-05-19T03:22:12.165Z,103122.72
2023-05-19T03:25:17.149Z,103117.53
2023-05-19T03:28:23.412Z,103127.03
2023-05-19T03:31:28.494Z,103129.53
2023-05-19T03:34:34.248Z,103127.06
2023-05-19T03:37:41.677Z,103128.75
2023-05-19T03:40:46.788Z,103134.69
2023-05-19T03:43:51.954Z,103134.72
2023-05-19T03:46:57.426Z,103128.97
2023-05-19T03:50:21.271Z,103128.19
2023-05-19T03:53:32.175Z,103132.41
2023-05-19T03:56:41.110Z,103142.63
2023-05-19T03:59:46.128Z,103145.19
2023-05-19T04:02:51.351Z,103146.22
2023-05-19T04:05:56.487Z,103152.22
2023-05-19T04:09:05.186Z,103144.59
2023-05-19T04:12:10.612Z,103151.50
2023-05-19T04:15:15.942Z,103143.91
2023-05-19T04:18:21.130Z,103150.72
2023-05-19T04:21:26.269Z,103156.00
2023-05-19T04:24:35.016Z,103157.81
2023-05-19T04:27:41.014Z,103152.72
2023-05-19T04:30:46.746Z,103157.75
2023-05-19T04:33:53.538Z,103152.66
2023-05-19T04:36:59.506Z,103155.25
2023-05-19T04:40:09.403Z,103151.13
2023-05-19T04:43:14.747Z,103150.31
2023-05-19T04:46:24.373Z,103148.72
2023-05-19T04:49:31.037Z,103151.38
2023-05-19T04:52:36.283Z,103156.56
2023-05-19T04:55:44.333Z,103152.44
2023-05-19T04:58:51.078Z,103154.31
2023-05-19T05:01:56.856Z,103147.59
2023-05-19T05:05:04.327Z,103147.66
2023-05-19T05:08:15.149Z,103151.13
2023-05-19T05:11:23.470Z,103147.78
2023-05-19T05:14:29.303Z,103145.28
2023-05-19T05:17:37.870Z,103147.03
2023-05-19T05:20:44.554Z,103157.31
2023-05-19T05:23:51.011Z,103159.13
2023-05-19T05:26:59.104Z,103149.78
2023-05-19T05:30:04.863Z,103137.03
2023-05-19T05:33:13.934Z,103149.94
2023-05-19T05:36:20.056Z,103150.03
2023-05-19T05:39:25.163Z,103146.66
2023-05-19T05:42:31.766Z,103149.28
2023-05-19T05:45:37.008Z,103141.59
2023-05-19T05:48:42.930Z,103150.16
2023-05-19T05:52:04.378Z,103148.38
2023-05-19T05:55:14.366Z,103152.63
2023-05-19T05:58:21.367Z,103152.56
2023-05-19T06:01:27.158Z,103153.34
2023-05-19T06:04:32.356Z,103154.09
2023-05-19T06:07:37.706Z,103147.97
2023-05-19T06:13:52.233Z,103152.94
2023-05-19T06:17:17.069Z,103160.59
2023-05-19T06:20:22.287Z,103154.50
2023-05-19T06:23:29.187Z,103158.66
2023-05-19T06:26:34.586Z,103157.69
2023-05-19T06:29:41.687Z,103159.38
2023-05-19T06:32:47.663Z,103170.41
2023-05-19T06:35:53.388Z,103166.06
2023-05-19T06:39:01.206Z,103164.25
2023-05-19T06:42:10.610Z,103162.34
2023-05-19T06:45:36.980Z,103162.28
2023-05-19T06:48:43.271Z,103154.44
2023-05-19T06:51:49.314Z,103156.88
2023-05-19T06:54:55.011Z,103160.25
2023-05-19T06:58:00.069Z,103165.28
2023-05-19T07:01:06.994Z,103167.75
2023-05-19T07:04:18.780Z,103170.28
2023-05-19T07:07:23.725Z,103173.66
2023-05-19T07:10:29.890Z,103168.19
2023-05-19T07:13:35.571Z,103169.78
2023-05-19T07:16:42.116Z,103179.16
2023-05-19T07:19:47.148Z,103180.75
2023-05-19T07:22:52.848Z,103178.84
2023-05-19T07:25:58.291Z,103167.44
2023-05-19T07:29:03.275Z,103170.19
2023-05-19T07:32:09.980Z,103180.56
2023-05-19T07:35:15.590Z,103169.06
2023-05-19T07:38:21.599Z,103169.75
2023-05-19T07:41:26.908Z,103179.97
2023-05-19T07:44:32.483Z,103184.38
2023-05-19T07:47:39.171Z,103187.69
2023-05-19T07:50:44.330Z,103178.22
2023-05-19T07:53:49.373Z,103185.19
2023-05-19T07:56:54.447Z,103184.16
2023-05-19T07:59:59.456Z,103179.78
2023-05-19T08:03:06.524Z,103178.00
2023-05-19T08:06:14.596Z,103173.72
2023-05-19T08:09:19.648Z,103174.63
2023-05-19T08:12:24.750Z,103179.69
2023-05-19T08:15:30.186Z,103165.03
2023-05-19T08:18:37.008Z,103175.47
2023-05-19T08:21:42.417Z,103174.56
2023-05-19T08:24:49.745Z,103171.19
2023-05-19T08:27:54.821Z,103167.91
2023-05-19T08:31:01.326Z,103173.78
2023-05-19T08:34:07.822Z,103172.81
2023-05-19T08:37:13.883Z,103173.72
2023-05-19T08:40:19.711Z,103170.31
2023-05-19T08:43:24.821Z,103171.03
2023-05-19T08:46:31.821Z,103180.47
2023-05-19T08:49:52.469Z,103174.56
2023-05-19T08:53:01.587Z,103164.88
2023-05-19T08:56:11.325Z,103168.28
2023-05-19T08:59:16.443Z,103170.91
2023-05-19T09:02:22.098Z,103177.09
2023-05-19T09:05:28.958Z,103153.59
2023-05-19T09:08:34.029Z,103171.59
2023-05-19T09:11:39.076Z,103168.28
2023-05-19T09:14:44.207Z,103167.44
2023-05-19T09:17:49.779Z,103173.44
2023-05-19T09:21:02.571Z,103168.19
2023-05-19T09:24:09.225Z,103168.91
2023-05-19T09:27:17.129Z,103165.41
2023-05-19T09:30:23.280Z,103153.38
2023-05-19T09:33:28.531Z,103159.69
2023-05-19T09:36:35.218Z,103156.19
2023-05-19T09:39:40.832Z,103150.16
2023-05-19T09:42:46.068Z,103153.56
2023-05-19T09:45:52.385Z,103153.50
2023-05-19T09:48:59.788Z,103153.56
2023-05-19T09:52:07.040Z,103150.13
2023-05-19T09:55:14.076Z,103153.59
2023-05-19T09:58:19.444Z,103144.84
2023-05-19T10:01:24.823Z,103147.19
2023-05-19T10:04:30.812Z,103159.19
2023-05-19T10:07:37.777Z,103151.34
2023-05-19T10:10:42.783Z,103153.88
2023-05-19T10:13:47.875Z,103147.00
2023-05-19T10:16:53.761Z,103141.94
2023-05-19T10:19:59.559Z,103142.00
2023-05-19T10:23:06.344Z,103137.97
2023-05-19T10:26:12.681Z,103144.78
2023-05-19T10:29:20.612Z,103131.78
2023-05-19T10:32:29.910Z,103117.19
2023-05-19T10:36:08.688Z,103122.16
2023-05-19T10:39:19.622Z,103123.00
2023-05-19T10:42:31.132Z,103122.22
2023-05-19T10:45:43.413Z,103121.38
2023-05-19T10:48:48.450Z,103126.34
2023-05-19T10:51:56.746Z,103125.44
2023-05-19T10:55:04.893Z,103119.41
2023-05-19T10:58:10.481Z,103122.13
2023-05-19T11:01:17.209Z,103122.50
2023-05-19T11:04:41.207Z,103131.72
2023-05-19T11:08:02.260Z,103124.47
2023-05-19T11:11:16.490Z,103121.03
2023-05-19T11:14:23.269Z,103121.09
2023-05-19T11:17:28.921Z,103122.44
2023-05-19T11:20:35.302Z,103131.94
2023-05-19T11:23:41.170Z,103122.53
2023-05-19T11:26:47.890Z,103123.06
2023-05-19T11:29:53.221Z,103122.84
2023-05-19T11:32:58.977Z,103116.75
2023-05-19T11:36:05.101Z,103128.78
2023-05-19T11:39:12.334Z,103122.28
2023-05-19T11:42:19.062Z,103131.41
2023-05-19T11:45:27.262Z,103124.72
2023-05-19T11:48:32.428Z,103128.75
2023-05-19T11:51:38.502Z,103129.16
2023-05-19T11:54:43.919Z,103124.75
2023-05-19T11:58:04.727Z,103128.00
2023-05-19T12:01:12.225Z,103133.38
2023-05-19T12:04:17.225Z,103114.00
2023-05-19T12:07:23.696Z,103120.59
2023-05-19T12:10:30.415Z,103121.34
2023-05-19T12:13:37.425Z,103114.25
2023-05-19T12:16:42.536Z,103126.16
2023-05-19T12:19:49.078Z,103118.84
2023-05-19T12:22:56.305Z,103120.84
2023-05-19T12:26:01.777Z,103129.19
2023-05-19T12:29:08.660Z,103124.69
2023-05-19T12:32:14.193Z,103112.75
2023-05-19T12:35:19.856Z,103118.72
2023-05-19T12:38:24.944Z,103118.72
2023-05-19T12:41:31.952Z,103114.41
2023-05-19T12:44:43.623Z,103117.22
2023-05-19T12:47:49.830Z,103117.13
2023-05-19T12:50:55.666Z,103124.81
2023-05-19T12:54:04.593Z,103117.84
2023-05-19T12:57:09.829Z,103121.72
2023-05-19T13:00:20.851Z,103115.66
2023-05-19T13:03:26.075Z,103116.47
2023-05-19T13:06:32.877Z,103111.16
2023-05-19T13:09:38.492Z,103119.72
2023-05-19T13:12:43.554Z,103122.88
2023-05-19T13:15:49.929Z,103119.13
2023-05-19T13:18:55.050Z,103121.00
2023-05-19T13:22:00.138Z,103126.53
2023-05-19T13:25:05.358Z,103120.31
2023-05-19T13:28:13.863Z,103118.69
2023-05-19T13:31:20.656Z,103122.22
2023-05-19T13:34:27.789Z,103116.19
2023-05-19T13:37:32.982Z,103115.59
2023-05-19T13:40:38.160Z,103110.56
2023-05-19T13:43:43.389Z,103113.94
2023-05-19T13:46:52.259Z,103112.50
2023-05-19T13:49:57.739Z,103107.03
2023-05-19T13:53:03.661Z,103101.38
2023-05-19T13:56:11.479Z,103117.03
2023-05-19T13:59:17.333Z,103117.69
2023-05-19T14:02:24.002Z,103109.69
2023-05-19T14:05:29.369Z,103114.13
2023-05-19T14:08:34.502Z,103106.97
2023-05-19T14:11:39.521Z,103111.63
2023-05-19T14:14:44.794Z,103114.53
2023-05-19T14:17:53.180Z,103115.78
2023-05-19T14:20:58.317Z,103116.63
2023-05-19T14:24:03.376Z,103119.94
2023-05-19T14:27:08.689Z,103115.72
2023-05-19T14:30:14.427Z,103117.00
2023-05-19T14:33:21.603Z,103118.50
2023-05-19T14:36:26.684Z,103116.66
2023-05-19T14:39:32.309Z,103117.41
2023-05-19T14:42:37.265Z,103106.25
2023-05-19T14:45:42.950Z,103113.25
2023-05-19T14:48:49.360Z,103113.53
2023-05-19T14:51:54.565Z,103117.34
2023-05-19T14:54:59.537Z,103113.03
2023-05-19T14:58:12.912Z,103122.06
2023-05-19T15:01:25.240Z,103133.16
2023-05-19T15:04:31.897Z,103131.03
2023-05-19T15:07:36.937Z,103138.97
2023-05-19T15:10:41.965Z,103134.03
2023-05-19T15:13:46.986Z,103139.03
2023-05-19T15:16:52.117Z,103133.06
2023-05-19T15:19:58.570Z,103136.47
2023-05-19T15:23:03.529Z,103143.06
2023-05-19T15:26:09.012Z,103149.84
2023-05-19T15:29:14.091Z,103153.69
2023-05-19T15:32:19.365Z,103131.63
2023-05-19T15:35:25.971Z,103133.03
2023-05-19T15:38:31.109Z,103134.53
2023-05-19T15:41:36.271Z,103137.13
2023-05-19T15:44:41.432Z,103138.13
2023-05-19T15:47:46.497Z,103137.03
2023-05-19T15:50:53.312Z,103133.41
2023-05-19T15:53:58.381Z,103136.88
2023-05-19T15:57:03.675Z,103130.66
2023-05-19T16:00:10.460Z,103128.91
2023-05-19T16:03:15.659Z,103138.59
2023-05-19T16:06:22.439Z,103133.84
2023-05-19T16:09:27.647Z,103130.53
2023-05-19T16:12:32.701Z,103140.78
2023-05-19T16:15:37.864Z,103139.44
2023-05-19T16:18:44.262Z,103138.63
2023-05-19T16:21:50.777Z,103142.41
2023-05-19T16:24:55.773Z,103138.13
2023-05-19T16:28:00.915Z,103139.72
2023-05-19T16:31:06.118Z,103148.41
2023-05-19T16:34:13.157Z,103146.91
2023-05-19T16:37:19.588Z,103149.59
2023-05-19T16:40:24.561Z,103140.84
2023-05-19T16:43:29.621Z,103152.81
2023-05-19T16:46:34.987Z,103153.22
2023-05-19T16:49:40.976Z,103162.63
2023-05-19T16:52:47.409Z,103171.53
2023-05-19T16:55:52.523Z,103165.56
2023-05-19T16:58:57.800Z,103163.19
2023-05-19T17:02:02.867Z,103161.31
2023-05-19T17:05:08.930Z,103154.19
2023-05-19T17:08:16.658Z,103154.44
2023-05-19T17:11:22.534Z,103152.09
2023-05-19T17:14:27.593Z,103162.50
2023-05-19T17:17:32.645Z,103165.16
2023-05-19T17:20:37.768Z,103163.09
2023-05-19T17:23:44.840Z,103166.59
2023-05-19T17:26:49.893Z,103164.03
2023-05-19T17:29:55.115Z,103166.56
2023-05-19T17:33:01.110Z,103162.63
2023-05-19T17:36:07.566Z,103164.16
2023-05-19T17:39:15.035Z,103157.34
2023-05-19T17:42:20.028Z,103166.63
2023-05-19T17:45:26.603Z,103168.25
2023-05-19T17:48:31.876Z,103171.91
2023-05-19T17:51:37.517Z,103182.38
2023-05-19T17:54:44.490Z,103175.63
2023-05-19T17:57:50.255Z,103167.06
2023-05-19T18:00:55.738Z,103180.78
2023-05-19T18:04:01.603Z,103177.41
2023-05-19T18:07:07.645Z,103179.22
2023-05-19T18:10:17.393Z,103184.34
2023-05-19T18:13:23.696Z,103180.16
2023-05-19T18:16:29.544Z,103176.81
2023-05-19T18:19:34.598Z,103182.94
2023-05-19T18:22:40.700Z,103179.59
2023-05-19T18:25:53.418Z,103183.91
2023-05-19T18:29:02.583Z,103203.63
2023-05-19T18:32:08.451Z,103203.78
2023-05-19T18:35:15.829Z,103198.59
2023-05-19T18:38:23.686Z,103212.44
2023-05-19T18:41:30.470Z,103212.38
2023-05-19T18:44:35.511Z,103214.16
2023-05-19T18:47:40.751Z,103221.00
2023-05-19T18:50:45.704Z,103225.31
2023-05-19T18:53:51.016Z,103215.88
2023-05-19T18:56:57.702Z,103224.44
2023-05-19T19:00:04.330Z,103231.31
2023-05-19T19:03:11.896Z,103222.81
2023-05-19T19:06:18.126Z,103228.81
2023-05-19T19:09:23.476Z,103230.53
2023-05-19T19:12:30.206Z,103235.66
2023-05-19T19:15:35.219Z,103230.50
2023-05-19T19:18:40.548Z,103235.69
2023-05-19T19:21:45.605Z,103235.66
2023-05-19T19:24:50.779Z,103239.97
2023-05-19T19:27:57.174Z,103245.94
2023-05-19T19:31:02.524Z,103254.50
2023-05-19T19:34:09.259Z,103245.94
2023-05-19T19:37:14.542Z,103253.63
2023-05-19T19:40:19.799Z,103250.19
2023-05-19T19:43:26.384Z,103239.88
2023-05-19T19:46:31.504Z,103247.56
2023-05-19T19:49:36.717Z,103250.97
2023-05-19T19:52:41.744Z,103250.13
2023-05-19T19:55:46.796Z,103249.97
2023-05-19T19:58:53.227Z,103251.78
2023-05-19T20:01:58.721Z,103246.63
2023-05-19T20:05:03.809Z,103254.25
2023-05-19T20:08:08.979Z,103255.13
2023-05-19T20:11:15.570Z,103255.13
2023-05-19T20:14:22.151Z,103252.53
2023-05-19T20:17:27.265Z,103250.69
2023-05-19T20:20:32.527Z,103255.03
2023-05-19T20:23:38.928Z,103255.00
2023-05-19T20:26:44.029Z,103248.97
2023-05-19T20:29:50.583Z,103257.53
2023-05-19T20:32:56.233Z,103264.38
2023-05-19T20:36:01.292Z,103256.69
2023-05-19T20:39:07.071Z,103261.81
2023-05-19T20:42:12.574Z,103262.72
2023-05-19T20:45:19.585Z,103269.47
2023-05-19T20:48:24.595Z,103273.63
2023-05-19T20:51:29.689Z,103266.84
2023-05-19T20:54:34.687Z,103277.06
2023-05-19T20:57:39.715Z,103283.00
2023-05-19T21:00:46.079Z,103278.78
2023-05-19T21:03:51.333Z,103282.16
2023-05-19T21:06:56.571Z,103283.81
2023-05-19T21:10:01.912Z,103283.72
2023-05-19T21:13:07.214Z,103282.84
2023-05-19T21:16:14.769Z,103282.88
2023-05-19T21:19:20.895Z,103288.69
2023-05-19T21:22:26.660Z,103287.19
2023-05-19T21:25:32.170Z,103286.16
2023-05-19T21:28:37.149Z,103292.09
2023-05-19T21:31:43.529Z,103292.78
2023-05-19T21:34:48.625Z,103296.25
2023-05-19T21:37:53.586Z,103293.75
2023-05-19T21:40:58.593Z,103293.66
2023-05-19T21:44:03.596Z,103293.63
2023-05-19T21:47:10.049Z,103290.16
2023-05-19T21:50:17.487Z,103290.13
2023-05-19T21:53:22.589Z,103285.91
2023-05-19T21:56:27.585Z,103287.50
2023-05-19T21:59:32.614Z,103291.72
2023-05-19T22:02:39.334Z,103283.22
2023-05-19T22:05:44.965Z,103287.44
2023-05-19T22:08:50.063Z,103295.75
2023-05-19T22:11:55.086Z,103294.97
2023-05-19T22:15:01.143Z,103297.44
2023-05-19T22:18:08.194Z,103297.53
2023-05-19T22:21:13.334Z,103300.88
2023-05-19T22:24:18.629Z,103303.41
2023-05-19T22:27:23.552Z,103297.47
2023-05-19T22:30:28.723Z,103294.03
2023-05-19T22:33:35.143Z,103294.03
2023-05-19T22:36:41.353Z,103302.56
2023-05-19T22:39:46.785Z,103301.72
2023-05-19T22:42:51.831Z,103288.81
2023-05-19T22:45:57.134Z,103293.00
2023-05-19T22:49:03.650Z,103294.78
2023-05-19T22:52:10.933Z,103304.19
2023-05-19T22:55:16.547Z,103304.88
2023-05-19T22:58:21.544Z,103309.84
2023-05-19T23:01:26.639Z,103311.66
2023-05-19T23:04:33.234Z,103311.69
2023-05-19T23:07:38.446Z,103303.97
2023-05-19T23:10:43.372Z,103309.06
2023-05-19T23:13:48.428Z,103309.00
2023-05-19T23:16:53.577Z,103309.84
2023-05-19T23:20:00.330Z,103308.19
2023-05-19T23:23:05.827Z,103306.44
2023-05-19T23:26:13.503Z,103312.22
2023-05-19T23:29:18.570Z,103308.09
2023-05-19T23:32:23.749Z,103306.22
2023-05-19T23:35:30.595Z,103305.34
2023-05-19T23:38:35.632Z,103306.25
2023-05-19T23:41:40.567Z,103294.34
2023-05-19T23:44:45.669Z,103305.31
2023-05-19T23:47:50.740Z,103301.00
2023-05-19T23:50:57.913Z,103311.09
2023-05-19T23:54:02.886Z,103312.78
2023-05-19T23:57:08.447Z,103318.75
